Time;durP1;ratioP1;P1;durP2;ratioP2;P2;SDS_P1;SDS_P2;PMS_P1;PMS_P2;Temp;Humidity;BMP_temperature;BMP_pressure;BME280_temperature;BME280_humidity;BME280_pressure;Samples;Min_cycle;Max_cycle;Signal;HPM_P1;HPM_P2
2023/06/08 00:00:17;;;;;;;5.55;3.05;;;;;;;18.24;73.83;94859.53;5070565;28;20407;-79
2023/06/08 00:02:42;;;;;;;6.93;3.78;;;;;;;18.27;73.56;94859.78;5071842;28;20409;-78
2023/06/08 00:05:12;;;;;;;4.57;3.20;;;;;;;18.15;73.49;94850.41;5071146;28;20416;-78
2023/06/08 00:07:40;;;;;;;7.03;3.55;;;;;;;18.17;73.66;94869.59;5072252;28;20237;-78
2023/06/08 00:10:09;;;;;;;6.03;2.93;;;;;;;18.13;73.66;94861.31;5070888;28;20451;-78
2023/06/08 00:12:36;;;;;;;5.20;3.20;;;;;;;18.13;73.70;94871.97;5071100;28;20440;-79
2023/06/08 00:15:03;;;;;;;4.45;2.72;;;;;;;18.09;73.78;94878.88;5072202;28;20190;-79
2023/06/08 00:17:28;;;;;;;3.90;3.40;;;;;;;18.08;73.98;94877.25;5071597;28;20202;-79
2023/06/08 00:19:56;;;;;;;5.15;3.33;;;;;;;18.04;73.55;94873.53;5070776;28;20448;-78
2023/06/08 00:22:22;;;;;;;3.97;2.90;;;;;;;18.08;73.30;94866.59;5071281;28;20965;-78
2023/06/08 00:24:48;;;;;;;7.20;3.20;;;;;;;17.89;72.87;94852.91;5071586;28;20922;-79
2023/06/08 00:27:13;;;;;;;6.67;3.20;;;;;;;17.92;73.54;94875.56;5071396;28;20424;-79
2023/06/08 00:29:39;;;;;;;4.72;3.13;;;;;;;17.83;73.32;94877.09;5071976;28;20209;-79
2023/06/08 00:32:05;;;;;;;5.72;2.47;;;;;;;17.78;73.62;94874.41;5072041;28;20185;-79
2023/06/08 00:34:30;;;;;;;4.35;2.50;;;;;;;17.72;73.13;94865.56;5071992;28;20847;-79
2023/06/08 00:36:55;;;;;;;5.63;2.40;;;;;;;17.79;73.14;94884.00;5071886;28;20220;-79
2023/06/08 00:39:21;;;;;;;5.50;2.60;;;;;;;17.71;73.34;94875.44;5072056;28;20622;-79
2023/06/08 00:41:46;;;;;;;4.65;2.50;;;;;;;17.56;73.78;94861.94;5053822;28;20414;-79
2023/06/08 00:44:12;;;;;;;5.63;2.90;;;;;;;17.61;73.69;94875.31;5071382;28;20492;-79
2023/06/08 00:46:38;;;;;;;5.03;2.60;;;;;;;17.52;74.15;94860.84;5071774;28;20201;-79
2023/06/08 00:49:07;;;;;;;4.68;2.97;;;;;;;17.45;73.83;94846.16;5072025;28;20643;-79
2023/06/08 00:51:39;;;;;;;3.53;2.50;;;;;;;17.61;73.44;94869.19;5071279;28;20178;-79
2023/06/08 00:54:05;;;;;;;6.30;2.88;;;;;;;17.58;73.78;94869.66;5068781;28;20468;-79
2023/06/08 00:56:32;;;;;;;5.88;3.00;;;;;;;17.51;74.00;94859.25;5071181;28;20206;-79
2023/06/08 00:59:02;;;;;;;4.65;2.45;;;;;;;17.47;74.30;94863.44;5071217;28;20170;-79
2023/06/08 01:01:29;;;;;;;4.25;3.00;;;;;;;17.50;74.06;94865.63;5068136;28;20423;-79
2023/06/08 01:04:05;;;;;;;4.70;3.25;;;;;;;17.50;74.18;94862.97;5070312;28;20455;-78
2023/06/08 01:06:35;;;;;;;4.15;2.67;;;;;;;17.38;74.49;94865.00;5070431;28;20523;-79
2023/06/08 01:09:11;;;;;;;3.30;2.45;;;;;;;17.22;75.17;94861.38;5070457;28;20417;-79
2023/06/08 01:11:46;;;;;;;8.10;2.90;;;;;;;17.02;75.80;94858.53;5070025;28;20406;-78
2023/06/08 01:14:29;;;;;;;6.68;2.95;;;;;;;16.97;76.14;94859.25;5069391;28;20634;-79
2023/06/08 01:17:00;;;;;;;4.20;2.80;;;;;;;16.87;76.46;94831.75;5069604;28;20410;-79
2023/06/08 01:19:54;;;;;;;3.92;2.35;;;;;;;16.97;76.38;94859.25;5070901;28;20438;-79
2023/06/08 01:22:26;;;;;;;4.80;2.60;;;;;;;16.91;76.82;94860.28;5070741;28;20166;-78
2023/06/08 01:24:56;;;;;;;6.68;2.67;;;;;;;16.90;76.73;94863.16;5070720;28;20171;-78
2023/06/08 01:27:24;;;;;;;4.77;2.77;;;;;;;16.76;76.86;94846.00;5070641;28;20475;-78
2023/06/08 01:29:51;;;;;;;9.40;3.03;;;;;;;16.69;77.07;94846.19;5069899;28;20857;-78
2023/06/08 01:32:18;;;;;;;7.43;3.17;;;;;;;16.74;77.28;94864.88;5073257;28;20421;-78
2023/06/08 01:34:44;;;;;;;5.87;2.90;;;;;;;16.54;78.24;94859.25;5073584;28;20413;-78
2023/06/08 01:37:26;;;;;;;3.90;2.90;;;;;;;16.28;78.34;94828.13;5073710;28;20422;-78
2023/06/08 01:39:59;;;;;;;4.32;2.60;;;;;;;16.66;77.93;94861.84;5071478;28;20510;-78
2023/06/08 01:42:27;;;;;;;3.83;2.90;;;;;;;16.69;77.57;94862.13;5073946;28;20494;-78
2023/06/08 01:44:58;;;;;;;6.28;2.90;;;;;;;16.70;77.57;94857.63;5073298;28;20181;-78
2023/06/08 01:47:47;;;;;;;6.72;2.63;;;;;;;16.57;78.20;94850.81;5073042;28;20194;-79
2023/06/08 01:50:13;;;;;;;5.68;2.58;;;;;;;16.70;78.26;94863.75;5074043;28;20254;-79
2023/06/08 01:52:41;;;;;;;4.85;2.65;;;;;;;16.73;78.05;94860.59;5074253;28;20562;-79
2023/06/08 01:55:30;;;;;;;4.28;2.88;;;;;;;16.72;77.76;94856.31;5074107;28;20405;-79
2023/06/08 01:57:56;;;;;;;6.15;2.92;;;;;;;16.75;78.12;94858.50;5074542;28;20210;-79
2023/06/08 02:00:21;;;;;;;5.85;3.00;;;;;;;16.74;77.64;94856.09;5074230;28;20173;-79
2023/06/08 02:02:47;;;;;;;3.05;2.70;;;;;;;16.72;78.42;94844.88;5074099;28;20174;-79
2023/06/08 02:05:14;;;;;;;4.05;3.13;;;;;;;16.83;78.16;94854.59;5074093;28;20653;-79
2023/06/08 02:07:40;;;;;;;5.95;2.78;;;;;;;16.82;77.53;94855.63;5072761;28;20190;-79
2023/06/08 02:10:07;;;;;;;8.38;3.20;;;;;;;16.77;77.33;94858.25;5073105;28;20930;-79
2023/06/08 02:12:33;;;;;;;5.03;2.60;;;;;;;16.71;77.57;94860.03;5074021;28;20174;-79
2023/06/08 02:14:59;;;;;;;6.28;3.08;;;;;;;16.68;77.86;94852.56;5074303;28;20701;-79
2023/06/08 02:17:27;;;;;;;7.07;3.22;;;;;;;16.66;78.29;94852.00;5074055;28;20647;-79
2023/06/08 02:19:56;;;;;;;8.85;2.78;;;;;;;16.62;77.96;94842.09;5074019;28;20175;-79
2023/06/08 02:22:22;;;;;;;7.30;3.20;;;;;;;16.66;77.85;94853.88;5071843;28;20423;-79
2023/06/08 02:24:48;;;;;;;4.47;2.83;;;;;;;16.53;78.15;94842.50;5073246;28;20929;-79
2023/06/08 02:27:14;;;;;;;4.40;2.67;;;;;;;16.47;78.50;94832.88;5073710;28;20186;-79
2023/06/08 02:29:40;;;;;;;5.38;2.80;;;;;;;16.53;78.50;94850.50;5072360;28;20405;-79
2023/06/08 02:32:07;;;;;;;3.38;2.63;;;;;;;16.44;78.64;94838.69;5073759;28;20681;-79
2023/06/08 02:34:32;;;;;;;4.07;2.50;;;;;;;16.42;78.82;94832.84;5073951;28;20178;-79
2023/06/08 02:36:59;;;;;;;5.78;2.75;;;;;;;16.53;78.64;94850.50;5073366;28;20846;-79
2023/06/08 02:39:25;;;;;;;4.40;3.03;;;;;;;16.44;78.98;94844.00;5073254;28;20253;-79
2023/06/08 02:41:50;;;;;;;8.02;3.58;;;;;;;16.48;79.13;94850.44;5073481;28;20257;-79
2023/06/08 02:44:15;;;;;;;4.50;2.78;;;;;;;16.34;79.10;94827.16;5073298;28;20532;-79
2023/06/08 02:46:41;;;;;;;5.68;2.97;;;;;;;16.48;79.59;94839.81;5073280;28;20196;-79
2023/06/08 02:49:07;;;;;;;4.95;2.88;;;;;;;16.45;78.71;94834.16;5072811;28;20563;-78
2023/06/08 02:51:32;;;;;;;3.83;3.10;;;;;;;16.43;79.21;94830.97;5073401;28;20181;-78
2023/06/08 02:53:57;;;;;;;5.50;2.80;;;;;;;16.51;78.89;94859.78;5072307;28;20406;-79
2023/06/08 02:56:25;;;;;;;3.73;2.60;;;;;;;16.46;79.02;94841.91;5072975;28;20433;-78
2023/06/08 02:58:51;;;;;;;5.50;3.00;;;;;;;16.50;78.27;94837.72;5071953;28;20500;-78
2023/06/08 03:01:17;;;;;;;5.28;2.83;;;;;;;16.64;78.76;94854.09;5072934;28;20251;-79
2023/06/08 03:03:42;;;;;;;4.75;3.05;;;;;;;16.66;78.93;94857.31;5072863;28;20665;-79
2023/06/08 03:06:09;;;;;;;4.15;2.95;;;;;;;16.68;78.89;94859.75;5072669;28;20170;-79
2023/06/08 03:08:36;;;;;;;7.25;3.13;;;;;;;16.68;79.24;94865.88;5072770;28;20253;-79
2023/06/08 03:11:02;;;;;;;5.82;2.63;;;;;;;16.70;77.73;94862.94;5072730;28;20631;-78
2023/06/08 03:13:27;;;;;;;5.22;2.78;;;;;;;16.64;78.17;94864.75;5072612;28;20170;-78
2023/06/08 03:15:53;;;;;;;3.65;3.00;;;;;;;16.58;78.17;94850.56;5071164;28;20177;-78
2023/06/08 03:18:18;;;;;;;6.82;3.35;;;;;;;16.64;77.81;94843.47;5072900;28;20178;-78
2023/06/08 03:20:44;;;;;;;6.43;3.13;;;;;;;16.56;78.14;94828.75;5072187;28;20592;-78
2023/06/08 03:23:09;;;;;;;6.45;3.40;;;;;;;16.80;77.46;94845.25;5072336;28;20179;-78
2023/06/08 03:25:36;;;;;;;9.10;3.25;;;;;;;16.80;77.03;94855.06;5072357;28;20266;-77
2023/06/08 03:28:02;;;;;;;3.83;2.90;;;;;;;16.67;77.40;94827.03;5072117;28;20218;-77
2023/06/08 03:30:30;;;;;;;6.82;2.92;;;;;;;16.96;76.89;94860.31;5072009;28;20221;-78
2023/06/08 03:32:56;;;;;;;7.18;3.00;;;;;;;17.01;76.31;94848.13;5072491;28;20182;-79
2023/06/08 03:35:21;;;;;;;4.20;2.83;;;;;;;17.10;76.49;94851.94;5072421;28;20166;-78
2023/06/08 03:37:46;;;;;;;7.00;2.70;;;;;;;17.22;75.89;94868.53;5072207;28;20665;-78
2023/06/08 03:40:12;;;;;;;5.97;2.50;;;;;;;17.15;74.86;94851.97;5070777;28;20220;-78
2023/06/08 03:42:37;;;;;;;6.95;3.35;;;;;;;17.21;74.76;94856.31;5071741;28;20257;-77
2023/06/08 03:45:03;;;;;;;4.97;2.92;;;;;;;17.34;75.04;94874.53;5072172;28;20228;-77
2023/06/08 03:47:31;;;;;;;8.80;3.10;;;;;;;17.32;74.82;94861.47;5072064;28;20239;-77
2023/06/08 03:49:56;;;;;;;8.63;2.67;;;;;;;17.54;74.42;94874.72;5071670;28;20175;-78
2023/06/08 03:52:22;;;;;;;3.83;2.85;;;;;;;17.65;73.91;94865.78;5070864;28;20177;-78
2023/06/08 03:54:47;;;;;;;5.40;3.35;;;;;;;17.73;73.19;94856.50;5071773;28;20646;-77
2023/06/08 03:57:13;;;;;;;6.68;2.95;;;;;;;17.79;72.21;94844.84;5071086;28;20214;-78
2023/06/08 03:59:39;;;;;;;5.57;2.92;;;;;;;18.07;72.13;94881.00;5071821;28;20580;-78
2023/06/08 04:02:05;;;;;;;4.32;2.78;;;;;;;18.17;72.40;94877.59;5070777;28;20182;-76
2023/06/08 04:04:30;;;;;;;5.00;3.00;;;;;;;18.01;72.19;94887.34;5070912;28;20249;-76
2023/06/08 04:07:01;;;;;;;7.68;3.47;;;;;;;18.05;72.43;94875.13;5070869;28;20187;-77
2023/06/08 04:09:30;;;;;;;8.02;3.03;;;;;;;18.27;73.35;94883.78;5070008;28;20205;-77
2023/06/08 04:11:56;;;;;;;6.70;3.17;;;;;;;18.42;71.84;94883.88;5071064;28;20162;-77
2023/06/08 04:14:21;;;;;;;3.35;2.58;;;;;;;18.62;71.58;94872.53;5070695;28;20186;-79
2023/06/08 04:16:47;;;;;;;8.73;3.20;;;;;;;18.83;70.32;94870.75;5069851;28;22149;-78
2023/06/08 04:19:13;;;;;;;7.35;2.90;;;;;;;18.83;68.65;94876.91;5071210;28;20167;-80
2023/06/08 04:21:39;;;;;;;7.38;3.17;;;;;;;18.81;69.64;94886.22;5071128;28;20174;-78
2023/06/08 04:24:05;;;;;;;8.48;3.55;;;;;;;18.97;69.84;94887.06;5070629;28;20395;-78
2023/06/08 04:26:30;;;;;;;8.18;3.28;;;;;;;19.11;69.72;94883.63;5066915;28;20285;-78
2023/06/08 04:28:56;;;;;;;10.02;3.38;;;;;;;19.34;70.09;94882.38;5067076;28;20308;-79
2023/06/08 04:31:21;;;;;;;6.07;2.70;;;;;;;19.48;68.92;94872.00;5067708;28;20174;-80
2023/06/08 04:33:47;;;;;;;5.88;3.05;;;;;;;19.58;67.75;94882.69;5067773;28;20174;-80
2023/06/08 04:36:12;;;;;;;6.43;3.00;;;;;;;19.72;67.77;94888.31;5067512;28;20486;-80
2023/06/08 04:38:38;;;;;;;6.05;3.42;;;;;;;19.87;67.75;94877.63;5067420;28;20213;-80
2023/06/08 04:41:07;;;;;;;9.30;3.47;;;;;;;19.85;65.83;94867.19;5068220;28;20650;-81
2023/06/08 04:43:33;;;;;;;8.70;3.40;;;;;;;20.22;66.39;94887.47;5067785;28;20174;-80
2023/06/08 04:45:59;;;;;;;11.52;3.20;;;;;;;20.47;66.24;94890.13;5071060;28;20177;-81
2023/06/08 04:48:28;;;;;;;5.07;3.50;;;;;;;20.72;65.24;94889.25;5071021;28;20268;-81
2023/06/08 04:50:59;;;;;;;6.32;3.15;;;;;;;20.69;63.65;94865.72;5069833;28;20201;-82
2023/06/08 04:53:25;;;;;;;6.70;3.20;;;;;;;20.83;63.37;94880.13;5070586;28;20163;-81
2023/06/08 04:55:57;;;;;;;5.40;3.20;;;;;;;20.99;64.41;94870.16;5071799;28;20673;-81
2023/06/08 04:58:26;;;;;;;6.85;2.97;;;;;;;21.39;62.93;94893.25;5071980;28;20557;-81
2023/06/08 05:00:52;;;;;;;9.80;3.20;;;;;;;21.37;62.93;94823.88;5071499;28;20158;-81
2023/06/08 05:03:18;;;;;;;6.57;3.10;;;;;;;21.93;59.89;94876.25;5073188;28;20220;-81
2023/06/08 05:05:43;;;;;;;8.10;3.30;;;;;;;22.08;60.38;94862.72;5075122;28;20174;-81
2023/06/08 05:08:09;;;;;;;5.22;3.33;;;;;;;22.32;59.09;94885.03;5075140;28;20255;-81
2023/06/08 05:10:34;;;;;;;5.50;3.50;;;;;;;22.34;58.24;94877.50;5075064;28;20686;-81
2023/06/08 05:13:00;;;;;;;6.60;3.67;;;;;;;22.62;57.40;94897.34;5074884;28;20675;-81
2023/06/08 05:15:26;;;;;;;5.18;2.80;;;;;;;22.73;57.15;94869.31;5073585;28;20241;-81
2023/06/08 05:17:52;;;;;;;7.15;2.70;;;;;;;23.17;55.67;94868.25;5073044;28;20658;-81
2023/06/08 05:20:19;;;;;;;7.20;3.20;;;;;;;23.62;53.86;94869.50;5074954;28;20167;-81
2023/06/08 05:22:44;;;;;;;8.18;3.33;;;;;;;24.30;55.86;94893.97;5073414;28;20236;-82
2023/06/08 05:25:10;;;;;;;5.97;3.15;;;;;;;24.42;53.78;94862.00;5074788;28;20596;-82
2023/06/08 05:27:37;;;;;;;5.28;3.10;;;;;;;24.85;51.90;94883.25;5074649;28;20187;-83
2023/06/08 05:30:03;;;;;;;7.40;3.25;;;;;;;24.71;50.59;94850.97;5073643;28;20178;-83
2023/06/08 05:32:28;;;;;;;4.43;3.08;;;;;;;25.18;51.98;94871.28;5075443;28;20159;-83
2023/06/08 05:34:53;;;;;;;9.13;3.38;;;;;;;25.91;50.08;94897.19;5074116;28;20257;-83
2023/06/08 05:37:19;;;;;;;5.95;2.95;;;;;;;25.95;47.63;94880.41;5074897;28;20170;-83
2023/06/08 05:39:44;;;;;;;3.75;3.03;;;;;;;26.36;47.39;94899.91;5074506;28;20631;-82
2023/06/08 05:42:10;;;;;;;6.07;3.75;;;;;;;26.23;46.73;94854.84;5074577;28;20186;-83
2023/06/08 05:44:35;;;;;;;7.90;3.58;;;;;;;26.62;46.37;94898.16;5074552;28;20197;-80
2023/06/08 05:47:00;;;;;;;8.27;3.10;;;;;;;26.19;48.27;94883.56;5074684;28;20198;-82
2023/06/08 05:49:26;;;;;;;5.15;3.00;;;;;;;25.60;49.05;94857.75;5074269;28;20269;-81
2023/06/08 05:51:51;;;;;;;10.98;3.80;;;;;;;24.89;50.03;94894.25;5074191;28;20171;-82
2023/06/08 05:54:17;;;;;;;5.55;3.40;;;;;;;24.22;50.35;94865.03;5074269;28;20158;-81
2023/06/08 05:56:42;;;;;;;4.22;3.13;;;;;;;24.04;52.21;94853.22;5074770;28;20245;-82
2023/06/08 05:59:08;;;;;;;9.25;3.15;;;;;;;24.10;53.47;94871.97;5074707;28;20321;-82
2023/06/08 06:01:33;;;;;;;5.03;3.33;;;;;;;23.98;52.89;94850.91;5074106;28;20261;-83
2023/06/08 06:03:59;;;;;;;8.70;3.05;;;;;;;24.33;51.69;94889.88;5073137;28;20306;-83
2023/06/08 06:06:24;;;;;;;7.75;3.10;;;;;;;23.95;52.97;94856.91;5072627;28;20279;-82
2023/06/08 06:08:52;;;;;;;6.57;3.00;;;;;;;23.98;52.27;94845.53;5072987;28;20189;-82
2023/06/08 06:11:17;;;;;;;6.30;3.05;;;;;;;24.43;52.75;94885.13;5074137;28;20170;-83
2023/06/08 06:13:43;;;;;;;10.25;3.28;;;;;;;24.59;54.22;94885.66;5073366;28;20580;-82
2023/06/08 06:16:09;;;;;;;5.25;2.97;;;;;;;24.12;50.14;94859.03;5074285;28;20196;-82
2023/06/08 06:18:34;;;;;;;8.38;3.70;;;;;;;23.67;51.67;94842.56;5074985;28;20186;-82
2023/06/08 06:20:59;;;;;;;7.20;3.13;;;;;;;23.37;52.20;94867.94;5074616;28;20165;-82
2023/06/08 06:23:25;;;;;;;9.18;3.65;;;;;;;23.11;52.95;94890.88;5074851;28;20655;-82
2023/06/08 06:25:51;;;;;;;8.75;3.20;;;;;;;22.85;56.40;94880.44;5074691;28;20159;-82
2023/06/08 06:28:16;;;;;;;6.75;2.97;;;;;;;22.85;57.33;94871.59;5074324;28;20627;-82
2023/06/08 06:30:42;;;;;;;8.52;2.85;;;;;;;23.01;56.34;94845.34;5073166;28;20261;-82
2023/06/08 06:33:07;;;;;;;13.30;3.97;;;;;;;23.61;55.82;94886.75;5074369;28;20178;-81
2023/06/08 06:35:33;;;;;;;5.55;3.08;;;;;;;23.63;54.73;94853.09;5072907;28;20674;-82
2023/06/08 06:37:58;;;;;;;4.55;3.40;;;;;;;23.80;51.89;94854.44;5074260;28;20224;-83
2023/06/08 06:40:24;;;;;;;11.60;2.85;;;;;;;23.74;51.79;94844.88;5074252;28;20154;-84
2023/06/08 06:42:49;;;;;;;6.72;3.70;;;;;;;23.78;53.29;94821.69;5072831;28;20194;-85
2023/06/08 06:45:14;;;;;;;4.32;2.90;;;;;;;24.20;53.50;94823.38;5072912;28;20171;-84
2023/06/08 06:47:40;;;;;;;2.83;2.53;;;;;;;24.60;51.70;94870.28;5072821;28;20642;-84
2023/06/08 06:50:09;;;;;;;6.80;3.03;;;;;;;24.68;49.66;94875.78;5072728;28;20182;-83
2023/06/08 06:52:35;;;;;;;7.78;3.40;;;;;;;24.86;52.59;94866.00;5074042;28;20189;-82
2023/06/08 06:55:03;;;;;;;7.32;3.33;;;;;;;24.60;51.06;94786.81;5071791;28;20655;-83
2023/06/08 06:57:31;;;;;;;6.00;3.03;;;;;;;24.85;49.87;94850.13;5073042;28;20246;-82
2023/06/08 06:59:57;;;;;;;4.60;3.00;;;;;;;24.61;50.49;94823.44;5072066;28;20170;-82
2023/06/08 07:02:23;;;;;;;4.90;3.35;;;;;;;24.32;50.76;94811.03;5073474;28;20171;-83
2023/06/08 07:04:52;;;;;;;6.60;3.47;;;;;;;24.54;49.83;94829.22;5073810;28;20174;-83
2023/06/08 07:07:18;;;;;;;4.65;2.78;;;;;;;24.32;49.54;94802.19;5073695;28;20186;-82
2023/06/08 07:09:43;;;;;;;8.75;3.65;;;;;;;24.72;50.71;94814.06;5073754;28;20613;-83
2023/06/08 07:12:09;;;;;;;7.75;2.70;;;;;;;25.15;50.05;94823.41;5073684;28;20744;-83
2023/06/08 07:14:35;;;;;;;6.40;3.33;;;;;;;25.56;47.89;94849.44;5073865;28;20158;-83
2023/06/08 07:17:00;;;;;;;12.55;3.30;;;;;;;25.52;49.59;94841.16;5073766;28;20692;-83
2023/06/08 07:19:25;;;;;;;6.47;3.03;;;;;;;25.29;48.70;94836.03;5073319;28;20654;-82
2023/06/08 07:21:52;;;;;;;7.05;2.80;;;;;;;24.63;49.00;94821.25;5073371;28;20205;-82
2023/06/08 07:24:18;;;;;;;10.15;3.03;;;;;;;24.40;51.00;94821.13;5073598;28;20170;-82
2023/06/08 07:26:46;;;;;;;7.63;3.28;;;;;;;24.56;51.52;94829.69;5070804;28;20199;-82
2023/06/08 07:29:13;;;;;;;6.25;2.90;;;;;;;24.83;51.27;94851.22;5073548;28;20162;-80
2023/06/08 07:31:39;;;;;;;4.63;3.10;;;;;;;24.95;51.13;94839.19;5072974;28;20582;-80
2023/06/08 07:34:06;;;;;;;4.40;2.85;;;;;;;25.00;50.04;94839.06;5073184;28;20555;-80
2023/06/08 07:36:34;;;;;;;9.13;4.40;;;;;;;25.39;50.48;94838.50;5071661;28;20167;-80
2023/06/08 07:38:59;;;;;;;8.35;3.58;;;;;;;25.39;52.01;94833.91;5071222;28;20193;-79
2023/06/08 07:41:26;;;;;;;7.38;3.30;;;;;;;25.48;49.31;94828.59;5071001;28;20186;-83
2023/06/08 07:43:51;;;;;;;10.60;3.75;;;;;;;25.45;49.31;94837.28;5070797;28;20170;-81
2023/06/08 07:46:17;;;;;;;5.20;3.55;;;;;;;25.36;49.09;94844.50;5071953;28;20170;-81
2023/06/08 07:48:43;;;;;;;6.55;3.42;;;;;;;25.33;49.08;94823.56;5072214;28;20944;-81
2023/06/08 07:51:08;;;;;;;4.95;2.83;;;;;;;25.29;50.15;94836.84;5070649;28;20659;-81
2023/06/08 07:53:40;;;;;;;6.88;3.38;;;;;;;25.55;50.00;94837.84;5072099;28;20232;-82
2023/06/08 07:56:06;;;;;;;5.25;3.42;;;;;;;25.44;53.04;94822.19;5070554;28;20190;-81
2023/06/08 07:58:32;;;;;;;6.03;3.47;;;;;;;25.70;51.46;94833.22;5071885;28;20328;-81
2023/06/08 08:00:58;;;;;;;7.13;2.83;;;;;;;25.74;52.51;94826.13;5070618;28;20253;-82
2023/06/08 08:03:24;;;;;;;6.82;3.20;;;;;;;25.77;50.65;94826.28;5071742;28;20196;-81
2023/06/08 08:05:50;;;;;;;4.82;3.13;;;;;;;26.35;52.61;94841.63;5071515;28;20158;-81
2023/06/08 08:08:16;;;;;;;8.85;3.30;;;;;;;26.80;51.35;94834.16;5071809;28;20243;-82
2023/06/08 08:10:42;;;;;;;5.93;2.95;;;;;;;26.83;48.79;94816.53;5071709;28;20575;-82
2023/06/08 08:13:08;;;;;;;7.50;3.42;;;;;;;26.80;47.58;94825.28;5072075;28;20159;-82
2023/06/08 08:15:34;;;;;;;3.10;2.80;;;;;;;26.65;48.86;94813.75;5071515;28;20177;-82
2023/06/08 08:18:00;;;;;;;4.38;2.83;;;;;;;26.43;50.59;94823.84;5070715;28;20571;-83
2023/06/08 08:20:26;;;;;;;5.07;3.22;;;;;;;26.60;49.82;94829.31;5071702;28;20258;-83
2023/06/08 08:22:51;;;;;;;3.20;2.85;;;;;;;26.91;52.88;94827.38;5071531;28;20196;-82
2023/06/08 08:25:17;;;;;;;3.65;3.08;;;;;;;26.16;47.83;94712.25;5071447;28;20170;-82
2023/06/08 08:27:42;;;;;;;11.52;3.17;;;;;;;26.77;48.98;94793.47;5071221;28;20194;-83
2023/06/08 08:30:08;;;;;;;14.23;3.80;;;;;;;27.08;48.98;94834.72;5068303;28;20311;-82
2023/06/08 08:32:34;;;;;;;9.50;3.58;;;;;;;26.99;48.54;94794.16;5065902;28;20185;-82
2023/06/08 08:35:00;;;;;;;4.07;3.08;;;;;;;26.99;48.43;94825.81;5066655;28;20170;-82
2023/06/08 08:37:25;;;;;;;4.38;3.28;;;;;;;27.02;49.63;94806.25;5067664;28;20171;-82
2023/06/08 08:39:51;;;;;;;7.57;3.05;;;;;;;26.86;49.21;94805.88;5068046;28;20292;-82
2023/06/08 08:42:27;;;;;;;6.15;3.22;;;;;;;26.31;50.93;94797.44;5066819;28;20575;-82
2023/06/08 08:44:57;;;;;;;7.07;3.53;;;;;;;26.05;50.36;94796.47;5066225;28;20186;-82
2023/06/08 08:47:24;;;;;;;6.65;3.22;;;;;;;26.27;49.44;94810.78;5066601;28;20220;-82
2023/06/08 08:50:17;;;;;;;4.40;3.30;;;;;;;26.19;49.29;94808.00;5066352;28;20184;-82
2023/06/08 08:52:48;;;;;;;8.57;3.60;;;;;;;26.22;50.59;94810.06;5062510;28;20193;-82
2023/06/08 08:55:13;;;;;;;4.85;3.30;;;;;;;26.10;51.08;94793.66;5066562;28;20667;-82
2023/06/08 08:57:39;;;;;;;4.15;2.90;;;;;;;26.05;50.80;94809.97;5066976;28;20297;-82
2023/06/08 09:00:06;;;;;;;6.57;2.83;;;;;;;25.94;51.79;94771.69;5066670;28;20201;-82
2023/06/08 09:02:35;;;;;;;5.65;3.10;;;;;;;26.01;50.20;94763.94;5068257;28;20178;-82
2023/06/08 09:05:03;;;;;;;8.38;3.60;;;;;;;26.33;51.71;94807.91;5067298;28;20189;-82
2023/06/08 09:07:29;;;;;;;9.63;3.80;;;;;;;25.62;50.70;94759.25;5068190;28;20202;-82
2023/06/08 09:10:27;;;;;;;8.77;3.53;;;;;;;25.90;53.07;94800.38;5068464;28;20178;-82
2023/06/08 09:12:56;;;;;;;4.95;3.20;;;;;;;25.49;51.07;94778.97;5044189;28;20273;-82
2023/06/08 09:15:34;;;;;;;6.82;2.88;;;;;;;25.35;52.42;94789.00;5066800;28;20273;-82
2023/06/08 09:18:14;;;;;;;5.38;3.25;;;;;;;25.40;52.95;94803.16;5068364;28;20713;-82
2023/06/08 09:20:39;;;;;;;8.82;2.75;;;;;;;25.31;53.67;94793.41;5068139;28;20185;-82
2023/06/08 09:23:20;;;;;;;7.15;3.15;;;;;;;25.19;53.27;94789.34;5068300;28;20175;-82
2023/06/08 09:25:47;;;;;;;8.13;3.33;;;;;;;25.28;53.82;94775.13;5066889;28;20273;-82
2023/06/08 09:28:28;;;;;;;4.70;2.88;;;;;;;25.57;53.25;94791.72;5065510;28;20686;-82
2023/06/08 09:30:56;;;;;;;23.65;3.55;;;;;;;25.53;53.01;94755.66;5067981;28;20261;-82
2023/06/08 09:33:25;;;;;;;4.85;3.45;;;;;;;25.73;51.25;94776.78;5066918;28;20206;-81
2023/06/08 09:35:56;;;;;;;5.05;2.95;;;;;;;25.80;51.59;94795.22;5067887;28;20189;-82
2023/06/08 09:38:25;;;;;;;4.22;2.90;;;;;;;25.53;50.92;94786.13;5067861;28;20681;-82
2023/06/08 09:40:51;;;;;;;8.65;2.90;;;;;;;25.37;51.46;94770.63;5068256;28;20206;-82
2023/06/08 09:43:33;;;;;;;5.82;2.90;;;;;;;25.36;51.96;94786.00;5067979;28;20178;-83
2023/06/08 09:45:59;;;;;;;4.20;2.70;;;;;;;25.16;51.93;94770.31;5066966;28;20269;-82
2023/06/08 09:48:24;;;;;;;3.53;2.47;;;;;;;25.15;51.35;94766.81;5066518;28;20326;-82
2023/06/08 09:50:58;;;;;;;4.05;2.50;;;;;;;24.90;51.32;94726.94;5070606;28;20178;-82
2023/06/08 09:53:25;;;;;;;3.45;2.90;;;;;;;25.14;51.56;94756.34;5071403;28;20182;-82
2023/06/08 09:55:53;;;;;;;4.22;2.70;;;;;;;25.07;54.27;94742.50;5071013;28;20178;-82
2023/06/08 09:58:24;;;;;;;3.83;2.90;;;;;;;24.98;51.82;94720.88;5072537;28;20222;-82
2023/06/08 10:00:53;;;;;;;9.02;3.17;;;;;;;24.98;52.77;94720.88;5073846;28;20265;-82
2023/06/08 10:03:28;;;;;;;3.13;2.83;;;;;;;25.33;53.26;94770.44;5071786;28;20611;-82
2023/06/08 10:05:57;;;;;;;7.45;3.08;;;;;;;25.17;53.53;94767.28;5072817;28;20728;-82
2023/06/08 10:08:26;;;;;;;4.40;2.88;;;;;;;25.27;52.08;94760.06;5073154;28;20321;-82
2023/06/08 10:10:51;;;;;;;7.22;2.80;;;;;;;24.81;52.08;94691.84;5071466;28;20201;-82
2023/06/08 10:13:17;;;;;;;3.45;2.95;;;;;;;25.40;53.57;94753.84;5072092;28;20659;-83
2023/06/08 10:15:43;;;;;;;8.15;2.78;;;;;;;25.42;51.35;94746.25;5072835;28;20209;-82
2023/06/08 10:18:09;;;;;;;7.40;2.90;;;;;;;25.45;51.38;94746.41;5071612;28;20194;-82
2023/06/08 10:20:35;;;;;;;5.85;3.00;;;;;;;25.25;52.15;94716.47;5072796;28;20170;-81
2023/06/08 10:23:02;;;;;;;3.80;2.78;;;;;;;25.23;54.06;94711.38;5069997;28;20172;-82
2023/06/08 10:25:30;;;;;;;4.32;2.50;;;;;;;25.02;51.39;94718.34;5069429;28;20167;-82
2023/06/08 10:28:05;;;;;;;3.90;3.00;;;;;;;24.84;50.71;94714.69;5069992;28;20206;-82
2023/06/08 10:30:39;;;;;;;4.30;3.10;;;;;;;24.87;51.88;94721.34;5071388;28;20257;-82
2023/06/08 10:33:15;;;;;;;4.78;2.95;;;;;;;25.04;52.43;94726.91;5070681;28;20295;-82
2023/06/08 10:36:01;;;;;;;7.88;3.22;;;;;;;25.11;54.27;94724.59;5071445;28;20173;-84
2023/06/08 10:38:26;;;;;;;6.53;3.10;;;;;;;24.95;52.28;94697.22;5070820;28;20178;-82
2023/06/08 10:40:51;;;;;;;5.22;3.30;;;;;;;25.29;52.55;94725.53;5071961;28;20158;-82
2023/06/08 10:43:22;;;;;;;4.53;2.50;;;;;;;25.15;48.39;94706.72;5071803;28;20171;-82
2023/06/08 10:45:50;;;;;;;4.20;2.75;;;;;;;24.95;50.06;94689.13;5072014;28;20261;-83
2023/06/08 10:48:18;;;;;;;3.13;2.83;;;;;;;24.50;51.24;94666.69;5072700;28;20194;-81
2023/06/08 10:50:44;;;;;;;7.32;2.60;;;;;;;24.53;50.42;94670.69;5070422;28;20166;-82
2023/06/08 10:53:10;;;;;;;2.60;2.40;;;;;;;24.77;50.54;94688.16;5071568;28;20265;-81
2023/06/08 10:55:36;;;;;;;3.80;2.50;;;;;;;25.00;52.41;94696.28;5073100;28;20258;-81
2023/06/08 10:58:06;;;;;;;2.60;2.40;;;;;;;25.18;51.21;94701.50;5073187;28;20296;-81
2023/06/08 11:00:33;;;;;;;3.55;2.40;;;;;;;25.31;50.01;94690.97;5073027;28;20261;-81
2023/06/08 11:03:00;;;;;;;3.55;2.88;;;;;;;25.45;51.99;94689.81;5072970;28;20253;-81
2023/06/08 11:05:36;;;;;;;5.15;2.30;;;;;;;25.51;52.38;94685.09;5072965;28;20235;-81
2023/06/08 11:08:02;;;;;;;3.40;2.20;;;;;;;25.45;49.12;94686.31;5072181;28;20200;-81
2023/06/08 11:10:30;;;;;;;4.43;2.53;;;;;;;25.27;49.02;94681.91;5072661;28;20166;-82
2023/06/08 11:13:06;;;;;;;4.30;2.28;;;;;;;25.21;49.31;94681.25;5072998;28;20190;-80
2023/06/08 11:15:34;;;;;;;3.22;2.38;;;;;;;25.32;50.29;94677.22;5072429;28;20170;-81
2023/06/08 11:18:00;;;;;;;3.13;2.38;;;;;;;25.36;49.63;94674.69;5071364;28;20175;-80
2023/06/08 11:20:26;;;;;;;8.40;2.90;;;;;;;25.12;51.41;94654.25;5072629;28;20197;-81
2023/06/08 11:22:52;;;;;;;3.55;2.42;;;;;;;24.93;51.83;94642.06;5072720;28;20240;-81
2023/06/08 11:25:24;;;;;;;4.75;2.78;;;;;;;25.23;51.55;94670.97;5071248;28;20650;-80
2023/06/08 11:27:53;;;;;;;6.90;2.80;;;;;;;25.32;51.28;94662.94;5072488;28;20243;-80
2023/06/08 11:30:28;;;;;;;5.07;2.42;;;;;;;25.37;52.58;94663.59;5072579;28;20253;-81
2023/06/08 11:32:55;;;;;;;3.03;2.60;;;;;;;25.36;50.51;94658.50;5072064;28;20630;-81
2023/06/08 11:35:21;;;;;;;5.78;2.55;;;;;;;25.42;51.75;94641.13;5073154;28;20205;-81